createdAt,value
2022-12-22T00:02:33.142Z,48.95
2022-12-22T00:06:55.357Z,45.45
2022-12-22T00:11:16.185Z,34.58
2022-12-22T00:15:37.537Z,27.83
2022-12-22T00:19:58.281Z,31.58
2022-12-22T00:24:20.417Z,30.58
2022-12-22T00:28:41.371Z,39.22
2022-12-22T00:33:02.529Z,42.65
2022-12-22T00:37:23.826Z,38.45
2022-12-22T00:41:45.848Z,25.48
2022-12-22T00:46:07.010Z,35.38
2022-12-22T00:50:28.749Z,30.15
2022-12-22T00:54:49.524Z,46.83
2022-12-22T00:59:15.700Z,37.58
2022-12-22T01:03:36.472Z,30.45
2022-12-22T01:07:56.937Z,33.72
2022-12-22T01:12:17.764Z,46.22
2022-12-22T01:16:39.778Z,33.95
2022-12-22T01:21:00.753Z,39.73
2022-12-22T01:25:21.297Z,43.78
2022-12-22T01:29:41.789Z,28.35
2022-12-22T01:34:04.463Z,41.28
2022-12-22T01:38:25.121Z,46.88
2022-12-22T01:42:46.312Z,38.05
2022-12-22T01:47:07.076Z,40.88
2022-12-22T01:51:33.772Z,45.50
2022-12-22T01:55:54.685Z,47.85
2022-12-22T02:00:15.198Z,32.35
2022-12-22T02:04:37.934Z,44.35
2022-12-22T02:13:38.461Z,34.70
2022-12-22T02:18:09.965Z,30.08
2022-12-22T02:22:39.461Z,27.80
2022-12-22T02:27:05.016Z,39.30
2022-12-22T02:31:26.171Z,45.35
2022-12-22T02:35:55.456Z,35.45
2022-12-22T02:40:21.216Z,34.20
2022-12-22T02:44:59.269Z,37.60
2022-12-22T02:49:24.742Z,38.40
2022-12-22T02:53:47.920Z,37.47
2022-12-22T02:58:09.724Z,43.88
2022-12-22T03:02:32.630Z,40.60
2022-12-22T03:06:53.693Z,44.30
2022-12-22T03:11:14.783Z,45.67
2022-12-22T03:15:35.348Z,31.73
2022-12-22T03:19:58.306Z,44.33
2022-12-22T03:24:19.306Z,32.15
2022-12-22T03:28:23.895Z,39.95
2022-12-22T03:32:27.322Z,24.25
2022-12-22T03:36:32.282Z,33.88
2022-12-22T03:40:35.725Z,32.25
2022-12-22T03:44:56.379Z,31.77
2022-12-22T03:49:11.884Z,29.65
2022-12-22T03:53:16.666Z,34.70
2022-12-22T03:57:19.645Z,29.70
2022-12-22T04:01:23.238Z,32.45
2022-12-22T04:05:26.620Z,32.90
2022-12-22T04:09:31.358Z,34.00
2022-12-22T04:13:35.229Z,19.40
2022-12-22T04:17:38.529Z,40.75
2022-12-22T04:21:41.867Z,42.80
2022-12-22T04:25:46.340Z,30.83
2022-12-22T04:29:49.728Z,31.90
2022-12-22T04:33:53.300Z,29.80
2022-12-22T04:37:56.910Z,36.70
2022-12-22T04:42:01.374Z,38.97
2022-12-22T04:46:04.814Z,31.08
2022-12-22T04:50:09.290Z,38.72
2022-12-22T04:54:12.742Z,40.08
2022-12-22T04:58:17.942Z,38.42
2022-12-22T05:02:21.245Z,50.92
2022-12-22T05:06:25.021Z,34.47
2022-12-22T05:10:28.371Z,35.63
2022-12-22T05:14:33.570Z,35.58
2022-12-22T05:18:37.533Z,34.15
2022-12-22T05:22:41.169Z,37.92
2022-12-22T05:26:44.758Z,43.45
2022-12-22T05:30:49.905Z,42.88
2022-12-22T05:34:53.202Z,39.10
2022-12-22T05:38:56.877Z,28.15
2022-12-22T05:43:00.188Z,34.25
2022-12-22T05:47:05.341Z,37.10
2022-12-22T05:51:10.424Z,28.50
2022-12-22T05:55:14.378Z,32.58
2022-12-22T05:59:18.073Z,40.72
2022-12-22T06:03:24.112Z,36.40
2022-12-22T06:07:27.510Z,30.90
2022-12-22T06:11:31.075Z,26.02
2022-12-22T06:15:34.368Z,23.65
2022-12-22T06:19:39.560Z,32.50
2022-12-22T06:23:42.974Z,34.10
2022-12-22T06:27:46.542Z,35.80
2022-12-22T06:31:50.010Z,32.47
2022-12-22T06:35:58.907Z,38.78
2022-12-22T06:40:03.187Z,32.00
2022-12-22T06:44:07.144Z,40.50
2022-12-22T06:48:12.648Z,34.80
2022-12-22T06:52:17.497Z,35.25
2022-12-22T06:56:21.191Z,31.60
2022-12-22T07:00:25.153Z,38.80
2022-12-22T07:04:30.475Z,31.23
2022-12-22T07:08:35.392Z,43.75
2022-12-22T07:12:39.222Z,43.95
2022-12-22T07:16:42.864Z,33.38
2022-12-22T07:20:46.396Z,44.55
2022-12-22T07:24:51.805Z,37.60
2022-12-22T07:28:55.459Z,29.35
2022-12-22T07:32:58.976Z,34.80
2022-12-22T07:37:02.731Z,35.55
2022-12-22T07:41:29.653Z,46.90
2022-12-22T07:45:34.540Z,32.38
2022-12-22T07:49:55.429Z,24.15
2022-12-22T07:53:58.735Z,20.92
2022-12-22T07:58:03.728Z,31.00
2022-12-22T08:02:07.277Z,21.70
2022-12-22T08:06:10.764Z,29.88
2022-12-22T08:10:14.440Z,30.45
2022-12-22T08:14:19.163Z,34.53
2022-12-22T08:18:22.829Z,22.58
2022-12-22T08:22:26.719Z,23.80
2022-12-22T08:26:36.663Z,30.30
2022-12-22T08:30:41.557Z,26.27
2022-12-22T08:34:45.309Z,25.05
2022-12-22T08:38:49.114Z,26.75
2022-12-22T08:42:56.990Z,22.30
2022-12-22T08:47:02.123Z,26.33
2022-12-22T08:51:05.903Z,27.05
2022-12-22T08:55:11.012Z,21.83
2022-12-22T08:59:14.553Z,29.75
2022-12-22T09:03:19.804Z,30.95
2022-12-22T09:07:23.404Z,26.95
2022-12-22T09:11:27.332Z,27.02
2022-12-22T09:15:30.878Z,40.38
2022-12-22T09:19:35.879Z,26.80
2022-12-22T09:23:39.421Z,36.17
2022-12-22T09:27:43.025Z,24.40
2022-12-22T09:31:46.265Z,29.27
2022-12-22T09:35:51.452Z,31.42
2022-12-22T09:39:54.969Z,34.67
2022-12-22T09:43:59.123Z,55.30
2022-12-22T09:48:04.087Z,24.20
2022-12-22T09:52:22.749Z,34.83
2022-12-22T09:56:27.988Z,34.92
2022-12-22T10:00:31.669Z,41.25
2022-12-22T10:04:47.772Z,38.22
2022-12-22T10:08:56.030Z,46.03
2022-12-22T10:13:01.750Z,43.88
2022-12-22T10:17:25.373Z,51.58
2022-12-22T10:21:29.519Z,47.05
2022-12-22T10:26:17.017Z,48.95
2022-12-22T10:30:21.671Z,36.28
2022-12-22T10:34:25.762Z,39.00
2022-12-22T10:38:34.332Z,53.25
2022-12-22T10:42:39.311Z,33.75
2022-12-22T10:46:46.259Z,44.22
2022-12-22T10:50:51.303Z,50.60
2022-12-22T10:54:55.051Z,49.35
2022-12-22T10:59:20.333Z,44.60
2022-12-22T11:03:31.175Z,39.72
2022-12-22T11:07:36.217Z,40.67
2022-12-22T11:11:44.567Z,42.35
2022-12-22T11:15:55.910Z,43.38
2022-12-22T11:20:29.606Z,35.80
2022-12-22T11:24:42.059Z,38.83
2022-12-22T11:28:59.101Z,36.35
2022-12-22T11:33:18.413Z,43.05
2022-12-22T11:37:34.136Z,34.97
2022-12-22T11:41:51.254Z,36.63
2022-12-22T11:46:11.828Z,44.60
2022-12-22T11:50:58.466Z,32.15
2022-12-22T11:55:16.833Z,36.28
2022-12-22T11:59:40.710Z,27.25
2022-12-22T12:04:25.474Z,40.58
2022-12-22T12:08:41.271Z,36.55
2022-12-22T12:12:53.940Z,37.20
2022-12-22T12:21:21.866Z,29.75
2022-12-22T12:25:31.814Z,36.55
2022-12-22T12:29:42.136Z,46.42
2022-12-22T12:33:49.716Z,36.50
2022-12-22T12:37:59.228Z,34.38
2022-12-22T12:42:15.101Z,32.42
2022-12-22T12:46:56.104Z,35.95
2022-12-22T12:51:00.175Z,32.08
2022-12-22T12:55:31.688Z,41.03
2022-12-22T12:59:51.648Z,32.70
2022-12-22T13:04:04.587Z,37.70
2022-12-22T13:08:27.386Z,34.72
2022-12-22T13:12:41.291Z,26.77
2022-12-22T13:16:46.438Z,36.30
2022-12-22T13:21:18.677Z,43.95
2022-12-22T13:25:22.543Z,40.28
2022-12-22T13:29:31.175Z,29.70
2022-12-22T13:33:40.811Z,28.15
2022-12-22T13:37:48.185Z,33.15
2022-12-22T13:41:52.795Z,29.48
2022-12-22T13:45:58.269Z,30.40
2022-12-22T13:50:10.650Z,26.85
2022-12-22T13:54:18.730Z,32.08
2022-12-22T13:58:29.556Z,30.60
2022-12-22T14:02:34.907Z,38.83
2022-12-22T14:06:43.089Z,33.28
2022-12-22T14:10:47.212Z,31.35
2022-12-22T14:14:53.362Z,24.90
2022-12-22T14:18:57.103Z,28.20
2022-12-22T14:23:07.743Z,25.30
2022-12-22T14:27:20.405Z,18.67
2022-12-22T14:31:27.179Z,16.67
2022-12-22T14:35:31.884Z,29.77
2022-12-22T14:39:36.818Z,26.70
2022-12-22T14:43:40.708Z,31.35
2022-12-22T14:47:44.275Z,27.58
2022-12-22T14:52:01.124Z,25.65
2022-12-22T14:56:12.524Z,15.77
2022-12-22T15:00:32.471Z,11.85
2022-12-22T15:04:35.990Z,8.25
2022-12-22T15:08:40.647Z,4.85
2022-12-22T15:12:46.261Z,5.35
2022-12-22T15:16:51.318Z,2.55
2022-12-22T15:20:55.641Z,11.70
2022-12-22T15:24:59.263Z,20.05
2022-12-22T15:29:04.275Z,25.15
2022-12-22T15:33:14.370Z,6.57
2022-12-22T15:37:18.071Z,19.95
2022-12-22T15:41:21.963Z,5.43
2022-12-22T15:45:27.457Z,10.32
2022-12-22T15:49:33.050Z,22.55
2022-12-22T15:53:38.696Z,24.58
2022-12-22T15:57:42.350Z,19.75
2022-12-22T16:01:56.615Z,17.58
2022-12-22T16:06:03.927Z,14.68
2022-12-22T16:10:10.483Z,31.58
2022-12-22T16:14:15.364Z,31.95
2022-12-22T16:18:20.444Z,31.45
2022-12-22T16:22:32.564Z,40.08
2022-12-22T16:26:36.140Z,22.23
2022-12-22T16:30:41.578Z,35.97
2022-12-22T16:34:46.818Z,29.05
2022-12-22T16:38:52.183Z,29.85
2022-12-22T16:47:26.641Z,29.75
2022-12-22T16:51:34.842Z,30.45
2022-12-22T16:55:38.552Z,29.92
2022-12-22T16:59:42.309Z,20.02
2022-12-22T17:03:46.186Z,26.42
2022-12-22T17:07:51.831Z,13.57
2022-12-22T17:11:56.830Z,9.63
2022-12-22T17:16:01.878Z,10.57
2022-12-22T17:20:06.563Z,1.83
2022-12-22T17:24:16.987Z,1.75
2022-12-22T17:28:20.751Z,2.35
2022-12-22T17:32:24.386Z,1.23
2022-12-22T17:36:33.839Z,4.82
2022-12-22T17:40:38.975Z,3.13
2022-12-22T17:48:52.194Z,0.93
2022-12-22T17:52:55.997Z,3.80
2022-12-22T17:57:03.419Z,0.90
2022-12-22T18:01:07.147Z,1.50
2022-12-22T18:05:15.567Z,3.10
2022-12-22T18:09:22.833Z,7.88
2022-12-22T18:13:28.139Z,6.95
2022-12-22T18:17:35.995Z,9.27
2022-12-22T18:21:40.089Z,5.47
2022-12-22T18:25:44.040Z,10.55
2022-12-22T18:29:49.290Z,7.13
2022-12-22T18:33:53.172Z,10.85
2022-12-22T18:37:56.916Z,14.27
2022-12-22T18:42:01.050Z,20.08
2022-12-22T18:46:08.117Z,12.52
2022-12-22T18:50:18.179Z,15.80
2022-12-22T18:54:26.057Z,16.40
2022-12-22T18:58:30.076Z,13.23
2022-12-22T19:02:35.060Z,12.02
2022-12-22T19:06:42.432Z,12.93
2022-12-22T19:10:48.821Z,13.15
2022-12-22T19:14:56.990Z,16.02
2022-12-22T19:19:02.975Z,13.80
2022-12-22T19:23:17.529Z,8.88
2022-12-22T19:27:24.663Z,15.43
2022-12-22T19:31:32.078Z,13.05
2022-12-22T19:35:38.747Z,9.07
2022-12-22T19:39:43.060Z,6.70
2022-12-22T19:43:47.876Z,5.90
2022-12-22T19:48:00.533Z,10.60
2022-12-22T19:52:06.864Z,8.10
2022-12-22T19:56:23.157Z,13.55
2022-12-22T20:00:28.972Z,11.30
2022-12-22T20:04:32.657Z,14.63
2022-12-22T20:08:44.753Z,7.53
2022-12-22T20:12:50.482Z,10.27
2022-12-22T20:16:54.591Z,7.40
2022-12-22T20:21:04.339Z,8.20
2022-12-22T20:25:15.292Z,6.78
2022-12-22T20:29:19.633Z,5.65
2022-12-22T20:33:25.414Z,6.00
2022-12-22T20:37:32.730Z,8.50
2022-12-22T20:41:38.792Z,15.00
2022-12-22T20:45:43.695Z,3.17
2022-12-22T20:49:49.655Z,3.22
2022-12-22T20:53:54.105Z,5.70
2022-12-22T20:58:01.790Z,4.68
2022-12-22T21:02:05.914Z,5.32
2022-12-22T21:06:23.953Z,6.93
2022-12-22T21:10:29.002Z,3.60
2022-12-22T21:14:34.190Z,6.80
2022-12-22T21:18:37.886Z,3.03
2022-12-22T21:22:41.473Z,3.05
2022-12-22T21:26:47.761Z,5.43
2022-12-22T21:30:52.992Z,16.33
2022-12-22T21:34:58.242Z,6.28
2022-12-22T21:39:07.703Z,4.78
2022-12-22T21:43:12.798Z,3.75
2022-12-22T21:47:21.291Z,4.55
2022-12-22T21:51:24.669Z,7.63
2022-12-22T21:55:30.993Z,8.10
2022-12-22T21:59:34.356Z,15.45
2022-12-22T22:03:39.357Z,9.65
2022-12-22T22:07:42.728Z,8.40
2022-12-22T22:12:03.903Z,10.63
2022-12-22T22:16:09.646Z,9.75
2022-12-22T22:20:17.828Z,13.25
2022-12-22T22:24:21.818Z,14.75
2022-12-22T22:28:25.077Z,9.77
2022-12-22T22:32:28.658Z,10.13
2022-12-22T22:36:33.388Z,11.07
2022-12-22T22:40:36.923Z,21.45
2022-12-22T22:44:40.771Z,15.73
2022-12-22T22:48:44.021Z,20.13
2022-12-22T22:52:49.274Z,20.88
2022-12-22T22:56:53.107Z,31.05
2022-12-22T23:00:56.605Z,20.88
2022-12-22T23:04:59.941Z,26.20
2022-12-22T23:09:05.298Z,34.80
2022-12-22T23:13:08.570Z,19.45
2022-12-22T23:17:12.234Z,13.30
2022-12-22T23:21:15.984Z,12.75
2022-12-22T23:25:23.444Z,12.65
2022-12-22T23:29:26.997Z,9.95
2022-12-22T23:33:32.357Z,11.32
2022-12-22T23:37:36.083Z,12.15
2022-12-22T23:41:40.935Z,12.57
2022-12-22T23:45:44.652Z,13.82
2022-12-22T23:49:47.929Z,13.02
2022-12-22T23:53:51.541Z,13.30
2022-12-22T23:57:56.181Z,12.02
